TimeEDT,TemperatureF,Dew PointF,Humidity,Sea Level PressureIn,VisibilityMPH,Wind Direction,Wind SpeedMPH,Gust SpeedMPH,PrecipitationIn,Events,Conditions,WindDirDegrees,DateUTC
12:53 AM,57.0,51.1,81,30.14,10.0,Calm,Calm,-,N/A,,Clear,0,2013-08-15 04:53:00
1:53 AM,55.9,51.1,84,30.14,10.0,Calm,Calm,-,N/A,,Clear,0,2013-08-15 05:53:00
2:53 AM,55.9,50.0,80,30.12,10.0,Calm,Calm,-,N/A,,Clear,0,2013-08-15 06:53:00
3:53 AM,55.9,50.0,80,30.12,10.0,Calm,Calm,-,N/A,,Clear,0,2013-08-15 07:53:00
4:53 AM,54.0,50.0,86,30.12,10.0,Calm,Calm,-,N/A,,Clear,0,2013-08-15 08:53:00
5:53 AM,53.1,50.0,89,30.12,10.0,Calm,Calm,-,N/A,,Clear,0,2013-08-15 09:53:00
6:53 AM,52.0,50.0,93,30.12,10.0,Calm,Calm,-,N/A,,Clear,0,2013-08-15 10:53:00
7:53 AM,54.0,51.1,90,30.13,10.0,Calm,Calm,-,N/A,,Clear,0,2013-08-15 11:53:00
8:53 AM,57.0,51.1,81,30.14,10.0,Calm,Calm,-,N/A,,Clear,0,2013-08-15 12:53:00
9:53 AM,61.0,52.0,72,30.14,10.0,Calm,Calm,-,N/A,,Clear,0,2013-08-15 13:53:00
10:53 AM,64.9,53.1,65,30.13,10.0,Variable,3.5,-,N/A,,Clear,0,2013-08-15 14:53:00
11:53 AM,68.0,54.0,61,30.12,10.0,Variable,3.5,-,N/A,,Clear,0,2013-08-15 15:53:00
12:53 PM,69.1,55.0,61,30.12,10.0,Calm,Calm,-,N/A,,Clear,0,2013-08-15 16:53:00
1:53 PM,-9999,-9999,N/A,30.13,-9999.0,North,-9999.0,-,N/A,,Unknown,0,2013-08-15 17:53:00
2:53 PM,73.0,54.0,51,30.09,10.0,Calm,Calm,-,N/A,,Clear,0,2013-08-15 18:53:00
3:53 PM,75.0,57.9,55,30.07,10.0,Calm,Calm,-,N/A,,Partly Cloudy,0,2013-08-15 19:53:00
4:53 PM,75.0,57.9,55,30.06,10.0,Calm,Calm,-,N/A,,Clear,0,2013-08-15 20:53:00
5:53 PM,73.0,57.9,59,30.06,10.0,Calm,Calm,-,N/A,,Clear,0,2013-08-15 21:53:00
6:53 PM,71.1,57.9,63,30.07,10.0,Calm,Calm,-,N/A,,Clear,0,2013-08-15 22:53:00
7:53 PM,68.0,60.1,76,30.07,10.0,Calm,Calm,-,N/A,,Clear,0,2013-08-15 23:53:00
8:53 PM,64.9,57.0,75,30.08,10.0,Calm,Calm,-,N/A,,Clear,0,2013-08-16 00:53:00
9:53 PM,63.0,57.0,81,30.09,10.0,Calm,Calm,-,N/A,,Clear,0,2013-08-16 01:53:00
10:53 PM,63.0,55.9,78,30.09,10.0,Calm,Calm,-,N/A,,Clear,0,2013-08-16 02:53:00
11:53 PM,62.1,55.0,78,30.10,10.0,Calm,Calm,-,N/A,,Partly Cloudy,0,2013-08-16 03:53:00